Meteorología y climatología de Navarra
Datos de la estación - Meteo Navarra

Estación de Carcastillo (La Oliva) GN

Altitud 343 m.


Datos desde el 07/12/2018 hasta el 08/12/2018 en horario solar
Los datos son PROVISIONALES

Anterior Página 1 de 1 Siguiente Descargar: Formato para Excel 2000 o superior   Formato csv   Formato para OpenOffice Calc
Fecha Temperatura Humedad relativa Radiación global Insolación Precipitación Velocidad viento 10 m Velocidad viento 10 m Dirección viento 10 m
ºC % W/m² s l/m² m/s km/h º
07/12/2018 0:00 5.6 91 0.0 0 0.0 2.3 8.4 284
07/12/2018 0:10 5.5 92 0.0 0 0.0 2.8 10.0 275
07/12/2018 0:20 5.1 92 0.0 0 0.0 1.7 6.0 254
07/12/2018 0:30 4.9 93 0.0 0 0.0 2.5 9.0 260
07/12/2018 0:40 4.8 94 0.0 0 0.0 2.9 10.4 264
07/12/2018 0:50 5.0 94 0.0 0 0.0 3.2 11.7 273
07/12/2018 1:00 5.0 94 0.0 0 0.0 3.1 11.1 264
07/12/2018 1:10 4.9 94 0.0 0 0.0 3.2 11.5 277
07/12/2018 1:20 4.6 93 0.0 0 0.0 3.1 11.3 272
07/12/2018 1:30 4.5 94 0.0 0 0.0 2.8 10.1 274
07/12/2018 1:40 4.5 94 0.0 0 0.0 2.7 9.9 270
07/12/2018 1:50 4.5 95 0.0 0 0.0 2.6 9.4 267
07/12/2018 2:00 4.5 95 0.0 0 0.0 2.6 9.3 262
07/12/2018 2:10 4.6 95 0.0 0 0.0 2.2 8.1 261
07/12/2018 2:20 4.4 94 0.0 0 0.0 1.9 6.9 253
07/12/2018 2:30 4.3 94 0.0 0 0.0 2.4 8.6 258
07/12/2018 2:40 4.2 95 0.0 0 0.0 2.4 8.6 260
07/12/2018 2:50 4.3 95 0.0 0 0.0 2.5 9.0 259
07/12/2018 3:00 4.2 94 0.0 0 0.0 2.3 8.1 257
07/12/2018 3:10 4.1 94 0.0 0 0.0 2.4 8.5 246
07/12/2018 3:20 4.2 94 0.0 0 0.0 3.0 10.9 250
07/12/2018 3:30 4.0 93 0.0 0 0.0 3.4 12.1 250
07/12/2018 3:40 4.0 93 0.0 0 0.0 3.2 11.4 254
07/12/2018 3:50 4.0 93 0.0 0 0.0 2.9 10.5 254
07/12/2018 4:00 4.1 93 0.0 0 0.0 2.8 10.0 257
07/12/2018 4:10 4.1 93 0.0 0 0.0 2.5 9.1 257
07/12/2018 4:20 3.9 92 0.0 0 0.0 2.0 7.3 256
07/12/2018 4:30 3.8 93 0.0 0 0.0 1.7 6.2 271
07/12/2018 4:40 3.7 93 0.0 0 0.0 1.2 4.2 280
07/12/2018 4:50 3.4 93 0.0 0 0.0 0.6 2.3 282
07/12/2018 5:00 2.9 92 0.0 0 0.0 0.9 3.3 349
07/12/2018 5:10 2.2 93 0.0 0 0.0 1.0 3.6 33
07/12/2018 5:20 2.1 94 0.0 0 0.0 0.8 2.7 55
07/12/2018 5:30 1.7 94 0.0 0 0.0 0.9 3.2 53
07/12/2018 5:40 1.6 95 0.0 0 0.0 0.6 2.0 86
07/12/2018 5:50 1.4 95 0.0 0 0.0 0.6 2.2 85
07/12/2018 6:00 1.2 94 0.0 0 0.0 0.6 2.2 66
07/12/2018 6:10 0.9 95 0.0 0 0.0 0.4 1.4 60
07/12/2018 6:20 0.7 95 0.0 0 0.0 0.6 2.0 53
07/12/2018 6:30 0.6 95 0.0 0 0.0 0.2 0.8 60
07/12/2018 6:40 0.4 95 0.0 0 0.0 1.1 3.8 122
07/12/2018 6:50 0.2 95 0.0 0 0.0 1.5 5.3 131
07/12/2018 7:00 0.1 96 0.0 0 0.0 1.3 4.5 121
07/12/2018 7:10 0.0 96 0.0 0 0.0 1.3 4.7 122
07/12/2018 7:20 -0.1 96 0.0 0 0.0 0.9 3.1 165
07/12/2018 7:30 -0.1 96 0.0 0 0.0 0.0 0.0 0
07/12/2018 7:40 -0.2 96 14.3 0 0.0 0.0 0.1 190
07/12/2018 7:50 -0.4 96 38.0 472 0.0 0.6 2.0 91
07/12/2018 8:00 -0.3 96 72.1 600 0.0 1.0 3.6 143
07/12/2018 8:10 0.0 97 102.1 600 0.0 0.2 0.6 140
07/12/2018 8:20 0.3 97 125.8 600 0.0 0.0 0.0 0
07/12/2018 8:30 0.5 97 142.1 600 0.0 0.0 0.0 0
07/12/2018 8:40 1.1 98 153.2 600 0.0 0.0 0.0 0
07/12/2018 8:50 2.1 98 163.6 600 0.0 0.0 0.0 0
07/12/2018 9:00 2.7 98 176.1 600 0.0 0.0 0.1 322
07/12/2018 9:10 3.4 98 194.1 600 0.0 0.1 0.4 344
07/12/2018 9:20 3.6 96 219.1 600 0.0 0.6 2.0 286
07/12/2018 9:30 4.5 94 247.7 600 0.0 0.5 1.9 292
07/12/2018 9:40 5.1 92 275.2 600 0.0 0.6 2.2 282
07/12/2018 9:50 5.8 91 300.5 600 0.0 1.4 5.0 256
07/12/2018 10:00 6.6 88 321.9 600 0.0 1.2 4.4 268
07/12/2018 10:10 6.8 86 338.9 600 0.0 0.6 2.2 259
07/12/2018 10:20 7.5 83 356.4 600 0.0 0.2 0.9 186
07/12/2018 10:30 7.8 81 369.5 600 0.0 1.0 3.6 244
07/12/2018 10:40 8.4 78 384.3 600 0.0 2.0 7.3 251
07/12/2018 10:50 8.9 78 396.8 600 0.0 2.0 7.1 255
07/12/2018 11:00 9.1 78 408.7 600 0.0 2.2 7.8 268
07/12/2018 11:10 9.4 76 416.3 600 0.0 2.1 7.4 252
07/12/2018 11:20 9.7 75 422.9 600 0.0 2.9 10.5 262
07/12/2018 11:30 9.9 74 428.9 600 0.0 2.2 7.8 262
07/12/2018 11:40 10.2 72 431.4 600 0.0 2.1 7.7 287
07/12/2018 11:50 10.3 72 434.0 600 0.0 1.7 6.0 290
07/12/2018 12:00 10.5 70 440.8 600 0.0 1.8 6.6 303
07/12/2018 12:10 10.9 68 429.8 600 0.0 3.1 11.1 277
07/12/2018 12:20 11.1 68 423.8 600 0.0 2.8 9.9 272
07/12/2018 12:30 11.5 67 427.4 600 0.0 1.7 6.0 268
07/12/2018 12:40 11.9 65 423.2 600 0.0 2.1 7.5 271
07/12/2018 12:50 11.9 64 415.9 600 0.0 2.3 8.3 289
07/12/2018 13:00 12.0 65 406.9 600 0.0 2.3 8.2 299
07/12/2018 13:10 12.3 65 398.1 600 0.0 2.1 7.4 293
07/12/2018 13:20 12.6 64 385.5 600 0.0 1.7 6.0 291
07/12/2018 13:30 12.8 64 372.3 600 0.0 1.9 6.8 296
07/12/2018 13:40 12.9 63 357.8 600 0.0 2.2 7.9 304
07/12/2018 13:50 13.0 64 344.6 600 0.0 2.4 8.6 313
07/12/2018 14:00 13.3 64 345.7 600 0.0 2.5 8.9 297
07/12/2018 14:10 13.6 63 397.9 600 0.0 2.7 9.5 290
07/12/2018 14:20 14.1 62 371.7 600 0.0 3.2 11.7 296
07/12/2018 14:30 13.9 61 380.7 600 0.0 3.2 11.4 316
07/12/2018 14:40 14.1 59 305.0 600 0.0 2.3 8.4 303
07/12/2018 14:50 13.9 60 226.1 600 0.0 2.5 9.1 313
07/12/2018 15:00 13.8 60 202.5 600 0.0 2.6 9.4 309
07/12/2018 15:10 13.7 61 178.3 600 0.0 2.6 9.4 311
07/12/2018 15:20 13.5 61 154.9 600 0.0 2.5 8.9 315
07/12/2018 15:30 13.4 62 129.3 600 0.0 1.6 5.8 306
07/12/2018 15:40 13.4 63 103.3 600 0.0 1.6 5.9 295
07/12/2018 15:50 13.4 64 80.0 600 0.0 1.4 5.0 293
07/12/2018 16:00 13.0 64 56.7 312 0.0 2.7 9.7 303
07/12/2018 16:10 12.8 65 9.0 0 0.0 2.8 10.0 307
07/12/2018 16:20 12.6 66 8.4 0 0.0 2.0 7.3 289
07/12/2018 16:30 12.5 65 0.0 0 0.0 2.9 10.4 284
07/12/2018 16:40 12.4 66 0.0 0 0.0 3.2 11.5 281
07/12/2018 16:50 12.3 67 0.0 0 0.0 2.9 10.4 281
07/12/2018 17:00 12.1 68 0.0 0 0.0 2.7 9.5 283
07/12/2018 17:10 12.0 69 0.0 0 0.0 2.7 9.8 281
07/12/2018 17:20 11.9 70 0.0 0 0.0 2.2 8.1 271
07/12/2018 17:30 11.8 72 0.0 0 0.0 2.2 8.1 276
07/12/2018 17:40 11.5 73 0.0 0 0.0 2.0 7.0 273
07/12/2018 17:50 11.3 74 0.0 0 0.0 1.6 5.9 278
07/12/2018 18:00 11.0 76 0.0 0 0.0 1.8 6.6 264
07/12/2018 18:10 10.6 77 0.0 0 0.0 2.1 7.4 258
07/12/2018 18:20 10.6 79 0.0 0 0.0 2.3 8.2 264
07/12/2018 18:30 10.7 78 0.0 0 0.0 2.8 9.9 282
07/12/2018 18:40 10.9 78 0.0 0 0.0 1.9 6.9 291
07/12/2018 18:50 10.8 78 0.0 0 0.0 1.6 5.6 286
07/12/2018 19:00 10.7 78 0.0 0 0.0 1.9 7.0 281
07/12/2018 19:10 10.8 78 0.0 0 0.0 2.5 9.1 278
07/12/2018 19:20 10.7 78 0.0 0 0.0 2.5 9.1 275
07/12/2018 19:30 10.7 79 0.0 0 0.0 2.4 8.5 277
07/12/2018 19:40 10.6 79 0.0 0 0.0 1.6 5.7 297
07/12/2018 19:50 10.6 78 0.0 0 0.0 2.5 9.0 319
07/12/2018 20:00 10.7 77 0.0 0 0.0 3.0 10.7 310
07/12/2018 20:10 10.7 77 0.0 0 0.0 2.3 8.3 290
07/12/2018 20:20 10.6 78 0.0 0 0.0 2.4 8.5 291
07/12/2018 20:30 10.6 78 0.0 0 0.0 2.6 9.3 307
07/12/2018 20:40 10.7 77 0.0 0 0.0 2.4 8.6 288
07/12/2018 20:50 10.7 78 0.0 0 0.0 2.1 7.5 287
07/12/2018 21:00 10.7 78 0.0 0 0.0 1.7 6.0 292
07/12/2018 21:10 10.7 78 0.0 0 0.0 2.7 9.8 281
07/12/2018 21:20 10.7 78 0.0 0 0.0 2.1 7.7 288
07/12/2018 21:30 10.7 78 0.0 0 0.0 2.5 9.0 309
07/12/2018 21:40 10.7 78 0.0 0 0.0 2.0 7.0 302
07/12/2018 21:50 10.6 79 0.0 0 0.0 2.4 8.7 302
07/12/2018 22:00 10.6 79 0.0 0 0.0 1.7 6.2 294
07/12/2018 22:10 10.5 80 0.0 0 0.0 1.3 4.5 291
07/12/2018 22:20 10.6 79 0.0 0 0.0 1.7 6.2 320
07/12/2018 22:30 10.8 75 0.0 0 0.0 3.2 11.4 351
07/12/2018 22:40 11.0 72 0.0 0 0.0 3.6 13.0 3
07/12/2018 22:50 10.9 72 0.0 0 0.0 3.2 11.6 12
07/12/2018 23:00 10.8 72 0.0 0 0.0 3.3 12.0 10
07/12/2018 23:10 10.6 72 0.0 0 0.0 2.8 10.1 1
07/12/2018 23:20 10.5 72 0.0 0 0.0 3.7 13.5 5
07/12/2018 23:30 10.2 72 0.0 0 0.0 2.6 9.3 348
07/12/2018 23:40 10.1 73 0.0 0 0.0 2.7 9.5 334
07/12/2018 23:50 10.0 74 0.0 0 0.0 2.4 8.6 344
Anterior Página 1 de 1 Siguiente

NOTA: Tipo de datos según el color:
   - Valores diarios o 10 minutos correctos
   - Valores diarios calculados a partir de un número de datos 10 minutos menor que 144 y mayor que 120, o de un número de datos semihorarios menor que 48 y mayor que 40 (caso de las estaciones de Riegos de Navarra y del MARM)
   - Valores diez minutos estimados


Contacto        Enlaces        Aviso legal